Barra de Santa Rosa, Brazil
Current Conditions -  °F | °C
As of 10:00 AM on Wednesday 26 Nov 2014 (Local Time) from SBKG Reporting Station
Broken Clouds Broken Clouds  
Wind Chill: 81°   Ceiling: 3000
Heat Index: 82°   Visibility: 6mi
Dew Point: 63°   Wind: 14mph
Humidity: 54%   Direction: 110°ESE
Pressure: 30"   Gusts: NA
Location:  6.72°S, 36.06°W
Report Text: SBKG 261300Z 11012KT 9999 BKN030 27/17 Q1016
Loading
Personal Weather Stations






























Interactive Weather Map New forecast layout! Learn more

10-Day Weather Forecast

Advertisements
Track Severe Weather on mobile